SKSM/SMR METAR and TAF weather

Enter ICAO airport designator
Station Type Date Time Source
SKSM METAR 2019/02/23 00:00 UTC NOAA

SKSM 230000Z 05016KT 7000 FEW020 SCT200 32/20 A2977 RMK HZ


Station Type Date Time Source
SKSM Decoded METAR 2019/02/23 00:00 UTC NOAA

Santa Marta / Simon Bolivar, Colombia (SKSM) 11-08N 074-14W 14M
Feb 22, 2019 - 07:00 PM EST / 2019.02.23 0000 UTC
Wind: from the NE (050 degrees) at 18 MPH (16 KT):0
Visibility: 4 mile(s):0
Sky conditions: partly cloudy
Temperature: 89 F (32 C)
Dew Point: 68 F (20 C)
Relative Humidity: 49%
Pressure (altimeter): 29.77 in. Hg (1008 hPa)
ob: SKSM 230000Z 05016KT 7000 FEW020 SCT200 32/20 A2977 RMK HZ
cycle: 0

Station Type Date Time Source
SKSM TAF UTC NOAA

Error!


Example: see airport list